createdAt,value
2022-12-18T00:01:27.360Z,-2.10
2022-12-18T00:03:56.262Z,-2.00
2022-12-18T00:06:26.164Z,-2.00
2022-12-18T00:08:53.373Z,-2.00
2022-12-18T00:11:22.668Z,-2.00
2022-12-18T00:13:49.611Z,-2.00
2022-12-18T00:16:21.498Z,-2.00
2022-12-18T00:18:54.417Z,-2.00
2022-12-18T00:21:21.846Z,-2.00
2022-12-18T00:23:49.753Z,-2.10
2022-12-18T00:26:19.871Z,-2.10
2022-12-18T00:28:47.246Z,-2.10
2022-12-18T00:31:20.038Z,-2.10
2022-12-18T00:33:47.564Z,-2.10
2022-12-18T00:36:19.956Z,-2.10
2022-12-18T00:38:47.663Z,-2.10
2022-12-18T00:41:39.154Z,-2.10
2022-12-18T00:44:08.099Z,-2.10
2022-12-18T00:46:35.066Z,-2.10
2022-12-18T00:49:02.385Z,-2.10
2022-12-18T00:51:29.217Z,-2.20
2022-12-18T00:53:56.303Z,-2.10
2022-12-18T00:56:23.664Z,-2.10
2022-12-18T00:58:50.653Z,-2.10
2022-12-18T01:01:18.196Z,-2.10
2022-12-18T01:03:46.237Z,-2.20
2022-12-18T01:06:14.883Z,-2.20
2022-12-18T01:08:41.882Z,-2.30
2022-12-18T01:11:19.564Z,-2.30
2022-12-18T01:13:47.013Z,-2.30
2022-12-18T01:16:15.578Z,-2.40
2022-12-18T01:18:42.981Z,-2.40
2022-12-18T01:21:12.379Z,-2.40
2022-12-18T01:23:39.481Z,-2.40
2022-12-18T01:26:13.525Z,-2.40
2022-12-18T01:28:41.006Z,-2.40
2022-12-18T01:31:23.361Z,-2.50
2022-12-18T01:33:52.194Z,-2.50
2022-12-18T01:36:21.468Z,-2.50
2022-12-18T01:38:48.798Z,-2.40
2022-12-18T01:41:17.615Z,-2.50
2022-12-18T01:43:50.751Z,-2.50
2022-12-18T01:46:20.273Z,-2.50
2022-12-18T01:48:50.707Z,-2.50
2022-12-18T01:51:17.963Z,-2.50
2022-12-18T01:53:46.159Z,-2.50
2022-12-18T01:56:15.679Z,-2.50
2022-12-18T01:58:47.883Z,-2.50
2022-12-18T02:01:15.245Z,-2.50
2022-12-18T02:03:44.076Z,-2.50
2022-12-18T02:06:27.845Z,-2.60
2022-12-18T02:09:12.129Z,-2.60
2022-12-18T02:11:50.967Z,-2.60
2022-12-18T02:14:29.845Z,-2.70
2022-12-18T02:17:23.318Z,-2.70
2022-12-18T02:20:23.270Z,-2.70
2022-12-18T02:23:01.873Z,-2.80
2022-12-18T02:25:47.604Z,-2.80
2022-12-18T02:28:19.430Z,-2.80
2022-12-18T02:30:49.918Z,-2.80
2022-12-18T02:33:18.189Z,-2.80
2022-12-18T02:36:06.604Z,-2.80
2022-12-18T02:38:35.855Z,-2.80
2022-12-18T02:41:09.104Z,-2.80
2022-12-18T02:43:37.177Z,-2.80
2022-12-18T02:46:38.473Z,-2.80
2022-12-18T02:49:33.895Z,-2.90
2022-12-18T02:52:22.476Z,-3.00
2022-12-18T02:55:04.962Z,-3.00
2022-12-18T02:57:46.519Z,-3.10
2022-12-18T03:00:40.420Z,-3.10
2022-12-18T03:03:20.205Z,-3.20
2022-12-18T03:05:56.454Z,-3.30
2022-12-18T03:08:28.206Z,-3.30
2022-12-18T03:11:10.501Z,-3.30
2022-12-18T03:13:49.923Z,-3.40
2022-12-18T03:16:23.540Z,-3.40
2022-12-18T03:18:58.465Z,-3.50
2022-12-18T03:21:44.511Z,-3.50
2022-12-18T03:24:12.625Z,-3.60
2022-12-18T03:26:45.009Z,-3.60
2022-12-18T03:29:19.642Z,-3.60
2022-12-18T03:31:52.339Z,-3.70
2022-12-18T03:34:27.391Z,-3.70
2022-12-18T03:36:54.456Z,-3.70
2022-12-18T03:39:23.584Z,-3.80
2022-12-18T03:42:04.699Z,-3.80
2022-12-18T03:44:53.971Z,-3.80
2022-12-18T03:47:29.377Z,-3.80
2022-12-18T03:50:15.928Z,-3.90
2022-12-18T03:53:22.100Z,-3.90
2022-12-18T03:55:51.504Z,-3.90
2022-12-18T03:58:22.282Z,-3.90
2022-12-18T04:01:01.166Z,-4.00
2022-12-18T04:03:30.862Z,-4.00
2022-12-18T04:06:00.082Z,-4.00
2022-12-18T04:08:28.551Z,-4.00
2022-12-18T04:11:03.503Z,-4.00
2022-12-18T04:13:38.905Z,-4.10
2022-12-18T04:16:10.945Z,-4.10
2022-12-18T04:18:41.334Z,-4.10
2022-12-18T04:21:09.155Z,-4.10
2022-12-18T04:23:37.149Z,-4.10
2022-12-18T04:26:04.311Z,-4.10
2022-12-18T04:29:03.852Z,-4.20
2022-12-18T04:31:31.127Z,-4.20
2022-12-18T04:33:58.555Z,-4.20
2022-12-18T04:36:25.742Z,-4.20
2022-12-18T04:38:53.251Z,-4.30
2022-12-18T04:41:20.986Z,-4.30
2022-12-18T04:43:49.112Z,-4.30
2022-12-18T04:46:15.962Z,-4.30
2022-12-18T04:48:42.884Z,-4.30
2022-12-18T04:51:09.771Z,-4.30
2022-12-18T04:53:37.707Z,-4.40
2022-12-18T04:56:11.061Z,-4.40
2022-12-18T04:58:39.234Z,-4.40
2022-12-18T05:01:06.302Z,-4.40
2022-12-18T05:03:35.537Z,-4.40
2022-12-18T05:06:02.386Z,-4.50
2022-12-18T05:08:29.094Z,-4.50
2022-12-18T05:11:17.597Z,-4.50
2022-12-18T05:13:45.444Z,-4.50
2022-12-18T05:16:13.125Z,-4.50
2022-12-18T05:18:40.410Z,-4.60
2022-12-18T05:21:07.422Z,-4.60
2022-12-18T05:23:34.455Z,-4.60
2022-12-18T05:26:03.870Z,-4.60
2022-12-18T05:28:32.548Z,-4.70
2022-12-18T05:31:01.779Z,-4.70
2022-12-18T05:33:31.708Z,-4.70
2022-12-18T05:36:00.734Z,-4.70
2022-12-18T05:38:28.752Z,-4.70
2022-12-18T05:40:56.144Z,-4.70
2022-12-18T05:43:24.626Z,-4.70
2022-12-18T05:45:52.455Z,-4.70
2022-12-18T05:48:19.483Z,-4.70
2022-12-18T05:50:47.986Z,-4.70
2022-12-18T05:53:20.341Z,-4.70
2022-12-18T05:55:47.861Z,-4.80
2022-12-18T05:58:15.680Z,-4.80
2022-12-18T06:00:44.621Z,-4.80
2022-12-18T06:03:12.775Z,-4.80
2022-12-18T06:05:42.449Z,-4.80
2022-12-18T06:08:10.037Z,-4.80
2022-12-18T06:10:37.606Z,-4.80
2022-12-18T06:13:05.672Z,-4.80
2022-12-18T06:15:32.966Z,-4.80
2022-12-18T06:18:01.472Z,-4.80
2022-12-18T06:20:33.246Z,-4.80
2022-12-18T06:23:01.114Z,-4.80
2022-12-18T06:25:28.117Z,-4.80
2022-12-18T06:27:55.134Z,-4.80
2022-12-18T06:30:22.028Z,-4.80
2022-12-18T06:32:56.710Z,-4.90
2022-12-18T06:35:24.499Z,-4.90
2022-12-18T06:37:51.800Z,-4.90
2022-12-18T06:40:19.452Z,-4.90
2022-12-18T06:42:46.407Z,-4.90
2022-12-18T06:45:13.307Z,-4.90
2022-12-18T06:47:40.123Z,-4.90
2022-12-18T06:50:07.478Z,-4.90
2022-12-18T06:52:34.627Z,-4.90
2022-12-18T06:55:01.800Z,-4.90
2022-12-18T06:57:28.958Z,-4.90
2022-12-18T06:59:55.906Z,-4.90
2022-12-18T07:02:22.895Z,-4.90
2022-12-18T07:04:50.027Z,-4.90
2022-12-18T07:07:17.197Z,-4.90
2022-12-18T07:09:51.721Z,-4.90
2022-12-18T07:12:19.096Z,-4.90
2022-12-18T07:14:46.116Z,-4.90
2022-12-18T07:17:13.366Z,-4.90
2022-12-18T07:19:40.390Z,-4.90
2022-12-18T07:22:07.237Z,-4.90
2022-12-18T07:24:35.518Z,-4.90
2022-12-18T07:27:02.987Z,-5.00
2022-12-18T07:29:29.947Z,-5.00
2022-12-18T07:31:56.866Z,-5.00
2022-12-18T07:34:23.629Z,-5.00
2022-12-18T07:36:50.424Z,-4.90
2022-12-18T07:39:17.175Z,-4.90
2022-12-18T07:41:47.500Z,-4.90
2022-12-18T07:44:16.402Z,-4.90
2022-12-18T07:46:43.322Z,-4.80
2022-12-18T07:49:10.146Z,-4.80
2022-12-18T07:51:37.256Z,-4.80
2022-12-18T07:54:04.203Z,-4.80
2022-12-18T07:56:31.684Z,-4.80
2022-12-18T07:58:59.605Z,-4.80
2022-12-18T08:01:27.276Z,-4.70
2022-12-18T08:03:54.217Z,-4.70
2022-12-18T08:06:22.417Z,-4.70
2022-12-18T08:08:53.468Z,-4.60
2022-12-18T08:11:20.350Z,-4.60
2022-12-18T08:13:48.379Z,-4.50
2022-12-18T08:16:16.524Z,-4.50
2022-12-18T08:18:43.266Z,-4.40
2022-12-18T08:21:21.351Z,-4.30
2022-12-18T08:23:48.792Z,-4.30
2022-12-18T08:26:16.588Z,-4.20
2022-12-18T08:28:43.798Z,-4.20
2022-12-18T08:31:10.898Z,-4.10
2022-12-18T08:33:40.105Z,-4.10
2022-12-18T08:36:09.698Z,-4.00
2022-12-18T08:38:36.882Z,-4.00
2022-12-18T08:41:09.698Z,-3.90
2022-12-18T08:43:56.965Z,-3.90
2022-12-18T08:46:25.847Z,-3.80
2022-12-18T08:48:54.043Z,-3.70
2022-12-18T08:51:21.017Z,-3.70
2022-12-18T08:53:48.381Z,-3.60
2022-12-18T08:56:16.533Z,-3.50
2022-12-18T08:58:43.702Z,-3.30
2022-12-18T09:01:13.204Z,-3.20
2022-12-18T09:03:41.028Z,-3.10
2022-12-18T09:06:08.392Z,-3.00
2022-12-18T09:08:35.224Z,-3.00
2022-12-18T09:11:02.108Z,-2.90
2022-12-18T09:13:29.608Z,-2.80
2022-12-18T09:15:56.851Z,-2.80
2022-12-18T09:18:25.196Z,-2.70
2022-12-18T09:20:53.811Z,-2.70
2022-12-18T09:23:21.800Z,-2.60
2022-12-18T09:25:49.231Z,-2.60
2022-12-18T09:28:18.144Z,-2.50
2022-12-18T09:30:47.744Z,-2.50
2022-12-18T09:33:15.322Z,-2.40
2022-12-18T09:35:44.960Z,-2.40
2022-12-18T09:38:14.840Z,-2.30
2022-12-18T09:40:46.269Z,-2.30
2022-12-18T09:43:19.055Z,-2.20
2022-12-18T09:45:52.248Z,-2.20
2022-12-18T09:48:31.873Z,-2.10
2022-12-18T09:51:05.052Z,-2.00
2022-12-18T09:53:36.391Z,-1.90
2022-12-18T09:56:05.274Z,-1.90
2022-12-18T09:58:41.237Z,-1.90
2022-12-18T10:01:15.406Z,-1.80
2022-12-18T10:03:45.331Z,-1.70
2022-12-18T10:06:36.569Z,-1.70
2022-12-18T10:09:18.817Z,-1.60
2022-12-18T10:12:09.551Z,-1.60
2022-12-18T10:14:51.015Z,-1.60
2022-12-18T10:18:14.042Z,-1.60
2022-12-18T10:20:52.750Z,-1.60
2022-12-18T10:23:25.405Z,-1.60
2022-12-18T10:26:10.571Z,-1.50
2022-12-18T10:28:40.144Z,-1.50
2022-12-18T10:31:18.551Z,-1.50
2022-12-18T10:33:45.672Z,-1.40
2022-12-18T10:36:13.109Z,-1.40
2022-12-18T10:38:40.539Z,-1.40
2022-12-18T10:41:29.302Z,-1.30
2022-12-18T10:44:20.385Z,-1.30
2022-12-18T10:46:50.598Z,-1.30
2022-12-18T10:49:24.487Z,-1.30
2022-12-18T10:51:52.407Z,-1.30
2022-12-18T10:54:23.465Z,-1.20
2022-12-18T10:56:50.840Z,-1.20
2022-12-18T10:59:19.273Z,-1.10
2022-12-18T11:01:50.722Z,-1.10
2022-12-18T11:04:32.124Z,-1.10
2022-12-18T11:07:03.888Z,-1.10
2022-12-18T11:09:38.620Z,-1.00
2022-12-18T11:12:17.747Z,-0.90
2022-12-18T11:14:48.941Z,-0.90
2022-12-18T11:17:36.727Z,-0.80
2022-12-18T11:20:07.950Z,-0.80
2022-12-18T11:22:37.264Z,-0.80
2022-12-18T11:25:35.427Z,-0.70
2022-12-18T11:28:07.090Z,-0.60
2022-12-18T11:30:36.853Z,-0.60
2022-12-18T11:33:20.354Z,-0.60
2022-12-18T11:35:52.020Z,-0.60
2022-12-18T11:38:24.316Z,-0.60
2022-12-18T11:41:00.300Z,-0.50
2022-12-18T11:43:46.120Z,-0.40
2022-12-18T11:46:20.394Z,-0.40
2022-12-18T11:49:04.418Z,-0.40
2022-12-18T11:51:47.582Z,-0.40
2022-12-18T11:54:16.358Z,-0.30
2022-12-18T11:56:57.301Z,-0.30
2022-12-18T11:59:36.252Z,-0.20
2022-12-18T12:02:24.961Z,-0.20
2022-12-18T12:05:07.073Z,-0.20
2022-12-18T12:08:01.165Z,-0.10
2022-12-18T12:11:17.391Z,-0.10
2022-12-18T12:14:08.047Z,-0.10
2022-12-18T12:16:45.127Z,-0.10
2022-12-18T12:19:37.896Z,-0.10
2022-12-18T12:22:36.588Z,-0.10
2022-12-18T12:25:27.984Z,-0.10
2022-12-18T12:28:33.860Z,-0.10
2022-12-18T12:31:26.356Z,0.00
2022-12-18T12:33:57.687Z,0.00
2022-12-18T12:36:35.857Z,0.00
2022-12-18T12:39:14.640Z,0.10
2022-12-18T12:42:04.429Z,0.10
2022-12-18T12:44:35.857Z,0.20
2022-12-18T12:47:15.458Z,0.20
2022-12-18T12:49:48.421Z,0.20
2022-12-18T12:52:27.216Z,0.20
2022-12-18T12:54:55.301Z,0.30
2022-12-18T12:57:24.455Z,0.30
2022-12-18T13:00:11.602Z,0.30
2022-12-18T13:02:58.041Z,0.30
2022-12-18T13:05:30.941Z,0.30
2022-12-18T13:08:07.304Z,0.30
2022-12-18T13:10:42.386Z,0.20
2022-12-18T13:13:22.804Z,0.20
2022-12-18T13:16:07.349Z,0.30
2022-12-18T13:18:34.414Z,0.30
2022-12-18T13:21:03.192Z,0.30
2022-12-18T13:23:40.269Z,0.30
2022-12-18T13:26:08.983Z,0.30
2022-12-18T13:28:48.148Z,0.30
2022-12-18T13:31:15.816Z,0.30
2022-12-18T13:34:17.015Z,0.30
2022-12-18T13:36:35.251Z,0.30
2022-12-18T13:39:19.692Z,0.20
2022-12-18T13:42:46.612Z,0.20
2022-12-18T13:45:58.268Z,0.20
2022-12-18T13:48:27.617Z,0.20
2022-12-18T13:51:07.982Z,0.20
2022-12-18T13:53:47.875Z,0.20
2022-12-18T13:56:27.435Z,0.20
2022-12-18T13:59:23.217Z,0.30
2022-12-18T14:01:58.960Z,0.20
2022-12-18T14:04:29.040Z,0.20
2022-12-18T14:07:18.557Z,0.20
2022-12-18T14:10:12.067Z,0.20
2022-12-18T14:12:57.909Z,0.30
2022-12-18T14:15:36.230Z,0.30
2022-12-18T14:18:24.162Z,0.30
2022-12-18T14:20:58.460Z,0.30
2022-12-18T14:23:42.172Z,0.30
2022-12-18T14:26:30.472Z,0.30
2022-12-18T14:29:01.943Z,0.30
2022-12-18T14:31:31.145Z,0.30
2022-12-18T14:33:58.136Z,0.30
2022-12-18T14:36:27.498Z,0.30
2022-12-18T14:38:56.973Z,0.30
2022-12-18T14:41:24.737Z,0.30
2022-12-18T14:43:53.461Z,0.30
2022-12-18T14:46:31.559Z,0.30
2022-12-18T14:48:59.800Z,0.30
2022-12-18T14:51:29.110Z,0.30
2022-12-18T14:53:58.750Z,0.30
2022-12-18T14:56:34.959Z,0.30
2022-12-18T14:59:23.767Z,0.30
2022-12-18T15:01:57.037Z,0.30
2022-12-18T15:04:23.943Z,0.30
2022-12-18T15:07:05.303Z,0.30
2022-12-18T15:09:32.164Z,0.30
2022-12-18T15:12:01.034Z,0.30
2022-12-18T15:14:38.176Z,0.20
2022-12-18T15:17:20.712Z,0.30
2022-12-18T15:19:49.253Z,0.30
2022-12-18T15:22:25.708Z,0.30
2022-12-18T15:24:53.178Z,0.30
2022-12-18T15:27:29.401Z,0.30
2022-12-18T15:30:08.884Z,0.30
2022-12-18T15:32:37.454Z,0.30
2022-12-18T15:35:10.670Z,0.30
2022-12-18T15:37:37.973Z,0.30
2022-12-18T15:40:06.748Z,0.20
2022-12-18T15:42:52.181Z,0.20
2022-12-18T15:45:19.320Z,0.20
2022-12-18T15:47:46.805Z,0.20
2022-12-18T15:50:13.679Z,0.20
2022-12-18T15:52:43.830Z,0.20
2022-12-18T15:55:42.814Z,0.20
2022-12-18T15:58:11.879Z,0.20
2022-12-18T16:00:41.278Z,0.20
2022-12-18T16:03:10.335Z,0.20
2022-12-18T16:05:37.426Z,0.20
2022-12-18T16:08:04.427Z,0.20
2022-12-18T16:10:31.459Z,0.20
2022-12-18T16:12:58.259Z,0.20
2022-12-18T16:15:25.208Z,0.20
2022-12-18T16:17:52.849Z,0.20
2022-12-18T16:20:21.968Z,0.30
2022-12-18T16:22:50.355Z,0.30
2022-12-18T16:25:18.582Z,0.30
2022-12-18T16:27:45.767Z,0.30
2022-12-18T16:30:17.004Z,0.30
2022-12-18T16:32:46.576Z,0.30
2022-12-18T16:35:15.639Z,0.30
2022-12-18T16:37:43.468Z,0.30
2022-12-18T16:40:15.606Z,0.30
2022-12-18T16:42:44.346Z,0.30
2022-12-18T16:45:17.878Z,0.30
2022-12-18T16:47:45.358Z,0.30
2022-12-18T16:50:12.655Z,0.30
2022-12-18T16:52:39.994Z,0.40
2022-12-18T16:55:07.099Z,0.40
2022-12-18T16:57:34.293Z,0.40
2022-12-18T17:00:05.233Z,0.40
2022-12-18T17:02:32.949Z,0.40
2022-12-18T17:05:00.118Z,0.40
2022-12-18T17:07:28.400Z,0.40
2022-12-18T17:09:55.714Z,0.40
2022-12-18T17:12:23.269Z,0.40
2022-12-18T17:14:50.273Z,0.50
2022-12-18T17:17:21.309Z,0.50
2022-12-18T17:19:50.153Z,0.50
2022-12-18T17:22:17.003Z,0.50
2022-12-18T17:24:43.772Z,0.60
2022-12-18T17:27:10.546Z,0.60
2022-12-18T17:29:40.162Z,0.50
2022-12-18T17:32:12.340Z,0.60
2022-12-18T17:34:41.119Z,0.60
2022-12-18T17:37:08.156Z,0.60
2022-12-18T17:39:35.018Z,0.60
2022-12-18T17:42:01.883Z,0.70
2022-12-18T17:44:30.016Z,0.70
2022-12-18T17:46:56.888Z,0.70
2022-12-18T17:49:23.803Z,0.70
2022-12-18T17:51:51.484Z,0.70
2022-12-18T17:54:18.354Z,0.70
2022-12-18T17:56:45.581Z,0.70
2022-12-18T17:59:13.198Z,0.70
2022-12-18T18:01:44.321Z,0.70
2022-12-18T18:04:11.881Z,0.80
2022-12-18T18:06:38.943Z,0.80
2022-12-18T18:09:15.144Z,0.80
2022-12-18T18:12:05.980Z,0.80
2022-12-18T18:14:33.156Z,0.80
2022-12-18T18:17:04.497Z,0.80
2022-12-18T18:19:33.089Z,0.80
2022-12-18T18:21:59.899Z,0.90
2022-12-18T18:24:27.207Z,0.90
2022-12-18T18:26:55.517Z,0.90
2022-12-18T18:29:26.675Z,0.90
2022-12-18T18:31:54.753Z,0.90
2022-12-18T18:34:30.390Z,0.90
2022-12-18T18:37:00.970Z,1.00
2022-12-18T18:39:28.123Z,1.00
2022-12-18T18:41:54.968Z,1.00
2022-12-18T18:44:26.096Z,1.00
2022-12-18T18:46:58.085Z,1.00
2022-12-18T18:49:27.717Z,1.10
2022-12-18T18:51:56.091Z,1.10
2022-12-18T18:54:23.252Z,1.10
2022-12-18T18:59:37.278Z,1.10
2022-12-18T19:02:05.008Z,1.10
2022-12-18T19:04:33.360Z,1.10
2022-12-18T19:07:00.185Z,1.20
2022-12-18T19:09:27.768Z,1.20
2022-12-18T19:12:14.196Z,1.20
2022-12-18T19:14:40.989Z,1.20
2022-12-18T19:17:07.920Z,1.30
2022-12-18T19:19:35.062Z,1.20
2022-12-18T19:22:01.881Z,1.20
2022-12-18T19:24:28.676Z,1.10
2022-12-18T19:26:58.168Z,1.10
2022-12-18T19:29:25.259Z,1.00
2022-12-18T19:31:52.148Z,1.00
2022-12-18T19:34:19.177Z,0.90
2022-12-18T19:36:46.517Z,0.80
2022-12-18T19:39:16.326Z,0.80
2022-12-18T19:41:44.034Z,0.80
2022-12-18T19:44:16.673Z,0.70
2022-12-18T19:46:46.005Z,0.70
2022-12-18T19:49:18.323Z,0.70
2022-12-18T19:51:46.079Z,0.60
2022-12-18T19:54:17.103Z,0.70
2022-12-18T19:56:45.075Z,0.70
2022-12-18T19:59:12.391Z,0.70
2022-12-18T20:01:39.540Z,0.60
2022-12-18T20:04:06.593Z,0.70
2022-12-18T20:06:35.974Z,0.60
2022-12-18T20:09:06.472Z,0.70
2022-12-18T20:11:38.376Z,0.70
2022-12-18T20:14:09.516Z,0.60
2022-12-18T20:16:36.415Z,0.60
2022-12-18T20:19:04.234Z,0.60
2022-12-18T20:21:31.300Z,0.60
2022-12-18T20:23:59.924Z,0.60
2022-12-18T20:26:27.184Z,0.60
2022-12-18T20:28:55.515Z,0.60
2022-12-18T20:31:22.935Z,0.60
2022-12-18T20:33:52.021Z,0.60
2022-12-18T20:36:21.273Z,0.60
2022-12-18T20:38:56.971Z,0.60
2022-12-18T20:41:25.338Z,0.60
2022-12-18T20:43:52.462Z,0.60
2022-12-18T20:46:19.505Z,0.60
2022-12-18T20:48:47.769Z,0.60
2022-12-18T20:51:17.092Z,0.60
2022-12-18T20:53:44.654Z,0.60
2022-12-18T20:56:21.558Z,0.60
2022-12-18T20:58:50.072Z,0.70
2022-12-18T21:01:20.080Z,0.70
2022-12-18T21:03:48.014Z,0.60
2022-12-18T21:06:16.972Z,0.60
2022-12-18T21:08:44.596Z,0.60
2022-12-18T21:11:39.410Z,0.70
2022-12-18T21:14:11.181Z,0.70
2022-12-18T21:16:39.896Z,0.70
2022-12-18T21:19:07.148Z,0.70
2022-12-18T21:21:38.726Z,0.70
2022-12-18T21:24:07.628Z,0.80
2022-12-18T21:26:40.464Z,0.80
2022-12-18T21:29:15.466Z,0.80
2022-12-18T21:31:43.899Z,0.80
2022-12-18T21:34:21.698Z,0.80
2022-12-18T21:36:50.270Z,0.80
2022-12-18T21:39:17.827Z,0.80
2022-12-18T21:42:05.741Z,0.80
2022-12-18T21:44:36.288Z,0.80
2022-12-18T21:47:21.908Z,0.80
2022-12-18T21:49:51.222Z,0.80
2022-12-18T21:52:18.105Z,0.80
2022-12-18T21:54:44.921Z,0.80
2022-12-18T21:57:13.470Z,0.80
2022-12-18T21:59:43.352Z,0.80
2022-12-18T22:02:19.945Z,0.90
2022-12-18T22:04:47.830Z,0.80
2022-12-18T22:07:16.269Z,0.90
2022-12-18T22:09:43.286Z,0.90
2022-12-18T22:12:13.397Z,0.90
2022-12-18T22:14:40.191Z,0.90
2022-12-18T22:17:07.109Z,0.90
2022-12-18T22:19:41.117Z,1.00
2022-12-18T22:22:09.917Z,1.00
2022-12-18T22:24:36.815Z,1.00
2022-12-18T22:27:03.594Z,1.00
2022-12-18T22:29:49.473Z,1.00
2022-12-18T22:32:23.411Z,1.10
2022-12-18T22:35:07.932Z,1.10
2022-12-18T22:37:35.080Z,1.10
2022-12-18T22:40:03.281Z,1.10
2022-12-18T22:42:31.262Z,1.10
2022-12-18T22:44:58.206Z,1.10
2022-12-18T22:47:29.467Z,1.20
2022-12-18T22:49:56.700Z,1.10
2022-12-18T22:52:23.810Z,1.20
2022-12-18T22:54:53.273Z,1.20
2022-12-18T22:57:21.791Z,1.30
2022-12-18T22:59:49.776Z,1.30
2022-12-18T23:02:17.863Z,1.30
2022-12-18T23:04:45.217Z,1.30
2022-12-18T23:07:16.375Z,1.30
2022-12-18T23:09:45.574Z,1.30
2022-12-18T23:12:16.379Z,1.30
2022-12-18T23:14:43.887Z,1.40
2022-12-18T23:17:10.730Z,1.40
2022-12-18T23:19:37.531Z,1.40
2022-12-18T23:22:10.013Z,1.40
2022-12-18T23:24:38.324Z,1.40
2022-12-18T23:27:09.082Z,1.40
2022-12-18T23:29:39.287Z,1.40
2022-12-18T23:32:06.115Z,1.40
2022-12-18T23:34:33.006Z,1.40
2022-12-18T23:37:01.019Z,1.40
2022-12-18T23:39:29.485Z,1.50
2022-12-18T23:42:00.694Z,1.50
2022-12-18T23:44:28.120Z,1.50
2022-12-18T23:46:55.461Z,1.60
2022-12-18T23:49:22.963Z,1.60
2022-12-18T23:51:50.276Z,1.60
2022-12-18T23:54:17.294Z,1.60
2022-12-18T23:56:49.328Z,1.70
2022-12-18T23:59:16.184Z,1.70
